createdAt,value
2023-01-19T00:01:38.722Z,0.20
2023-01-19T00:04:06.827Z,0.10
2023-01-19T00:06:34.710Z,0.30
2023-01-19T00:09:02.460Z,0.43
2023-01-19T00:11:30.337Z,0.10
2023-01-19T00:13:58.998Z,0.40
2023-01-19T00:16:26.848Z,0.20
2023-01-19T00:18:54.671Z,0.30
2023-01-19T00:21:22.575Z,0.38
2023-01-19T00:23:52.796Z,0.35
2023-01-19T00:26:22.433Z,0.20
2023-01-19T00:28:50.492Z,0.20
2023-01-19T00:31:20.896Z,0.10
2023-01-19T00:33:49.513Z,0.40
2023-01-19T00:36:17.313Z,0.37
2023-01-19T00:38:45.097Z,0.20
2023-01-19T00:41:12.805Z,0.20
2023-01-19T00:43:40.550Z,0.23
2023-01-19T00:46:08.354Z,0.10
2023-01-19T00:48:36.204Z,0.30
2023-01-19T00:51:04.054Z,0.20
2023-01-19T00:53:32.741Z,0.25
2023-01-19T00:56:00.601Z,0.30
2023-01-19T00:58:29.605Z,0.17
2023-01-19T01:01:03.907Z,0.10
2023-01-19T01:03:31.841Z,0.40
2023-01-19T01:06:00.050Z,0.00
2023-01-19T01:08:27.803Z,0.13
2023-01-19T01:10:55.681Z,0.10
2023-01-19T01:13:26.227Z,0.20
2023-01-19T01:15:55.308Z,0.20
2023-01-19T01:18:23.138Z,0.13
2023-01-19T01:20:50.919Z,0.00
2023-01-19T01:23:23.094Z,0.22
2023-01-19T01:25:50.894Z,0.10
2023-01-19T01:28:18.689Z,0.10
2023-01-19T01:30:46.414Z,0.30
2023-01-19T01:33:14.208Z,0.20
2023-01-19T01:35:41.965Z,0.00
2023-01-19T01:38:10.093Z,0.45
2023-01-19T01:40:40.562Z,0.10
2023-01-19T01:43:14.657Z,0.20
2023-01-19T01:45:42.735Z,0.30
2023-01-19T01:48:27.414Z,0.22
2023-01-19T01:51:14.535Z,0.40
2023-01-19T01:53:42.915Z,0.40
2023-01-19T01:56:11.835Z,0.08
2023-01-19T01:58:39.607Z,0.40
2023-01-19T02:01:26.179Z,0.20
2023-01-19T02:03:57.427Z,0.30
2023-01-19T02:06:25.181Z,0.30
2023-01-19T02:09:19.053Z,0.20
2023-01-19T02:12:05.505Z,0.40
2023-01-19T02:14:33.261Z,0.28
2023-01-19T02:17:01.442Z,0.40
2023-01-19T02:19:32.187Z,0.40
2023-01-19T02:22:05.268Z,0.40
2023-01-19T02:24:33.254Z,0.10
2023-01-19T02:27:01.081Z,0.40
2023-01-19T02:29:28.798Z,0.40
2023-01-19T02:31:57.456Z,0.53
2023-01-19T02:34:25.120Z,0.40
2023-01-19T02:36:56.899Z,0.20
2023-01-19T02:39:32.261Z,0.30
2023-01-19T02:42:01.549Z,0.20
2023-01-19T02:44:29.223Z,0.28
2023-01-19T02:46:57.084Z,0.43
2023-01-19T02:49:24.985Z,0.30
2023-01-19T02:51:52.850Z,0.20
2023-01-19T02:54:39.555Z,0.47
2023-01-19T02:57:25.992Z,0.40
2023-01-19T03:00:03.522Z,0.98
2023-01-19T03:02:34.118Z,0.15
2023-01-19T03:05:05.948Z,0.20
2023-01-19T03:07:36.792Z,0.20
2023-01-19T03:10:04.647Z,0.20
2023-01-19T03:12:34.522Z,0.63
2023-01-19T03:15:02.907Z,0.40
2023-01-19T03:17:30.979Z,0.20
2023-01-19T03:19:58.877Z,0.55
2023-01-19T03:22:27.750Z,0.20
2023-01-19T03:24:56.369Z,0.30
2023-01-19T03:27:50.340Z,0.20
2023-01-19T03:30:19.155Z,0.30
2023-01-19T03:32:51.186Z,0.10
2023-01-19T03:35:19.236Z,0.00
2023-01-19T03:37:47.148Z,0.20
2023-01-19T03:40:14.886Z,0.30
2023-01-19T03:42:42.737Z,0.20
2023-01-19T03:45:10.701Z,0.20
2023-01-19T03:47:38.666Z,0.10
2023-01-19T03:50:07.530Z,0.10
2023-01-19T03:52:35.358Z,0.10
2023-01-19T03:55:04.523Z,0.35
2023-01-19T03:57:32.617Z,0.43
2023-01-19T04:00:00.524Z,0.35
2023-01-19T04:02:30.570Z,0.20
2023-01-19T04:04:58.535Z,0.50
2023-01-19T04:07:27.290Z,0.20
2023-01-19T04:09:55.007Z,0.20
2023-01-19T04:12:22.727Z,0.23
2023-01-19T04:14:50.837Z,0.40
2023-01-19T04:17:19.149Z,0.63
2023-01-19T04:19:47.015Z,0.40
2023-01-19T04:22:14.747Z,0.70
2023-01-19T04:24:43.734Z,0.30
2023-01-19T04:27:11.757Z,0.40
2023-01-19T04:29:39.480Z,0.10
2023-01-19T04:32:07.178Z,0.20
2023-01-19T04:34:34.894Z,0.28
2023-01-19T04:37:02.599Z,0.30
2023-01-19T04:39:30.380Z,0.45
2023-01-19T04:41:58.182Z,0.20
2023-01-19T04:44:25.955Z,0.82
2023-01-19T04:46:54.175Z,0.27
2023-01-19T04:49:22.015Z,0.30
2023-01-19T04:51:49.853Z,0.20
2023-01-19T04:54:17.616Z,0.20
2023-01-19T04:56:45.451Z,0.50
2023-01-19T04:59:13.154Z,0.22
2023-01-19T05:01:41.182Z,0.33
2023-01-19T05:04:09.280Z,0.32
2023-01-19T05:06:37.444Z,0.52
2023-01-19T05:09:08.036Z,0.50
2023-01-19T05:11:37.468Z,0.40
2023-01-19T05:14:05.267Z,0.30
2023-01-19T05:16:32.923Z,0.30
2023-01-19T05:19:01.066Z,0.40
2023-01-19T05:21:28.839Z,0.60
2023-01-19T05:23:56.627Z,0.70
2023-01-19T05:26:24.315Z,0.37
2023-01-19T05:28:52.166Z,0.55
2023-01-19T05:31:20.102Z,0.20
2023-01-19T05:33:49.212Z,0.40
2023-01-19T05:36:16.916Z,0.57
2023-01-19T05:38:44.675Z,1.75
2023-01-19T05:41:14.423Z,5.85
2023-01-19T05:43:42.106Z,8.47
2023-01-19T05:46:10.028Z,2.88
2023-01-19T05:48:38.033Z,2.92
2023-01-19T05:51:06.035Z,1.70
2023-01-19T05:53:33.776Z,2.17
2023-01-19T05:56:02.273Z,2.65
2023-01-19T05:58:30.048Z,0.90
2023-01-19T06:00:58.104Z,0.87
2023-01-19T06:03:25.903Z,0.50
2023-01-19T06:05:53.733Z,0.73
2023-01-19T06:08:21.513Z,0.67
2023-01-19T06:10:49.386Z,0.50
2023-01-19T06:13:17.809Z,0.10
2023-01-19T06:15:46.240Z,0.10
2023-01-19T06:18:17.046Z,0.28
2023-01-19T06:20:44.732Z,0.00
2023-01-19T06:23:12.509Z,0.40
2023-01-19T06:25:40.245Z,0.00
2023-01-19T06:28:08.034Z,0.32
2023-01-19T06:30:35.846Z,0.22
2023-01-19T06:33:03.851Z,0.30
2023-01-19T06:35:33.988Z,0.65
2023-01-19T06:38:01.669Z,0.20
2023-01-19T06:40:30.824Z,0.63
2023-01-19T06:42:58.825Z,0.32
2023-01-19T06:45:26.771Z,0.40
2023-01-19T06:47:54.535Z,0.28
2023-01-19T06:50:22.424Z,0.70
2023-01-19T06:52:53.289Z,1.05
2023-01-19T06:55:21.072Z,1.00
2023-01-19T06:57:57.160Z,0.77
2023-01-19T07:00:25.243Z,1.42
2023-01-19T07:02:53.272Z,0.60
2023-01-19T07:05:22.299Z,1.37
2023-01-19T07:07:53.559Z,0.52
2023-01-19T07:10:21.546Z,0.63
2023-01-19T07:12:49.315Z,0.90
2023-01-19T07:15:19.831Z,0.80
2023-01-19T07:17:47.628Z,1.13
2023-01-19T07:20:15.469Z,1.42
2023-01-19T07:22:46.800Z,1.10
2023-01-19T07:25:14.972Z,1.38
2023-01-19T07:27:42.938Z,0.57
2023-01-19T07:30:11.028Z,0.60
2023-01-19T07:32:39.092Z,0.65
2023-01-19T07:35:06.917Z,1.05
2023-01-19T07:37:34.619Z,0.60
2023-01-19T07:40:02.426Z,0.63
2023-01-19T07:42:30.138Z,0.57
2023-01-19T07:44:58.291Z,0.80
2023-01-19T07:47:26.029Z,0.63
2023-01-19T07:49:53.987Z,0.80
2023-01-19T07:52:23.191Z,0.98
2023-01-19T07:54:51.166Z,1.07
2023-01-19T07:57:19.447Z,0.57
2023-01-19T07:59:47.146Z,1.15
2023-01-19T08:02:16.353Z,0.55
2023-01-19T08:04:44.975Z,0.87
2023-01-19T08:07:15.817Z,0.73
2023-01-19T08:09:43.546Z,0.75
2023-01-19T08:12:11.674Z,0.57
2023-01-19T08:14:39.456Z,0.73
2023-01-19T08:17:07.266Z,0.85
2023-01-19T08:19:35.186Z,0.67
2023-01-19T08:22:02.938Z,0.50
2023-01-19T08:24:30.760Z,3.00
2023-01-19T08:27:01.609Z,1.85
2023-01-19T08:29:32.048Z,1.50
2023-01-19T08:32:02.331Z,2.25
2023-01-19T08:34:32.219Z,0.70
2023-01-19T08:36:59.984Z,0.67
2023-01-19T08:39:27.916Z,2.35
2023-01-19T08:41:55.667Z,1.35
2023-01-19T08:44:23.361Z,1.37
2023-01-19T08:46:51.095Z,2.03
2023-01-19T08:49:18.863Z,2.65
2023-01-19T08:51:47.128Z,3.22
2023-01-19T08:54:17.104Z,1.03
2023-01-19T08:56:46.161Z,1.42
2023-01-19T08:59:14.269Z,0.60
2023-01-19T09:01:42.387Z,1.40
2023-01-19T09:04:10.727Z,2.60
2023-01-19T09:06:38.606Z,1.98
2023-01-19T09:09:06.350Z,1.47
2023-01-19T09:11:36.270Z,3.78
2023-01-19T09:14:04.348Z,2.63
2023-01-19T09:16:32.192Z,2.03
2023-01-19T09:19:02.878Z,2.37
2023-01-19T09:21:30.789Z,3.13
2023-01-19T09:23:58.530Z,3.10
2023-01-19T09:26:26.405Z,4.40
2023-01-19T09:28:54.075Z,3.75
2023-01-19T09:31:21.952Z,1.73
2023-01-19T09:33:49.745Z,1.17
2023-01-19T09:36:17.706Z,2.05
2023-01-19T09:38:45.684Z,2.22
2023-01-19T09:41:22.767Z,2.20
2023-01-19T09:43:52.771Z,1.30
2023-01-19T09:46:21.969Z,1.02
2023-01-19T09:48:49.714Z,3.45
2023-01-19T09:51:18.901Z,1.97
2023-01-19T09:53:46.695Z,1.20
2023-01-19T09:56:14.731Z,1.00
2023-01-19T09:58:42.872Z,0.83
2023-01-19T10:01:31.793Z,1.30
2023-01-19T10:04:20.044Z,0.85
2023-01-19T10:06:48.613Z,1.23
2023-01-19T10:09:43.060Z,0.60
2023-01-19T10:12:36.803Z,0.60
2023-01-19T10:15:07.119Z,0.80
2023-01-19T10:17:34.837Z,0.90
2023-01-19T10:20:02.706Z,0.82
2023-01-19T10:22:30.360Z,0.80
2023-01-19T10:24:59.578Z,0.80
2023-01-19T10:27:29.621Z,0.88
2023-01-19T10:29:58.029Z,0.95
2023-01-19T10:32:33.748Z,0.82
2023-01-19T10:35:01.521Z,1.60
2023-01-19T10:37:30.465Z,0.90
2023-01-19T10:40:01.353Z,0.70
2023-01-19T10:42:29.679Z,0.43
2023-01-19T10:44:57.427Z,0.60
2023-01-19T10:47:27.563Z,0.90
2023-01-19T10:49:55.423Z,0.50
2023-01-19T10:52:32.373Z,0.80
2023-01-19T10:55:00.375Z,0.93
2023-01-19T10:57:38.989Z,0.90
2023-01-19T11:00:07.281Z,1.10
2023-01-19T11:02:35.278Z,1.30
2023-01-19T11:05:22.310Z,1.63
2023-01-19T11:07:50.167Z,2.23
2023-01-19T11:10:18.156Z,0.93
2023-01-19T11:13:02.945Z,0.45
2023-01-19T11:15:46.306Z,1.10
2023-01-19T11:18:34.398Z,0.65
2023-01-19T11:21:02.942Z,0.35
2023-01-19T11:23:31.828Z,0.93
2023-01-19T11:26:01.378Z,0.63
2023-01-19T11:28:30.202Z,0.90
2023-01-19T11:30:58.901Z,0.70
2023-01-19T11:33:27.731Z,0.77
2023-01-19T11:36:02.551Z,1.48
2023-01-19T11:38:30.296Z,1.08
2023-01-19T11:40:58.607Z,1.90
2023-01-19T11:43:43.287Z,2.03
2023-01-19T11:46:15.462Z,1.08
2023-01-19T11:48:46.417Z,0.82
2023-01-19T11:51:17.962Z,0.80
2023-01-19T11:53:47.491Z,0.98
2023-01-19T11:56:15.304Z,0.70
2023-01-19T11:58:44.590Z,0.63
2023-01-19T12:01:24.725Z,0.60
2023-01-19T12:03:54.984Z,0.68
2023-01-19T12:06:24.042Z,0.70
2023-01-19T12:08:59.329Z,0.50
2023-01-19T12:11:37.409Z,0.75
2023-01-19T12:14:05.358Z,0.60
2023-01-19T12:16:33.781Z,0.50
2023-01-19T12:19:05.141Z,0.60
2023-01-19T12:21:32.963Z,0.60
2023-01-19T12:24:04.831Z,0.60
2023-01-19T12:26:32.643Z,1.15
2023-01-19T12:29:13.303Z,0.70
2023-01-19T12:31:43.061Z,0.80
2023-01-19T12:34:40.724Z,0.50
2023-01-19T12:37:31.211Z,0.40
2023-01-19T12:39:59.790Z,0.70
2023-01-19T12:42:27.612Z,0.50
2023-01-19T12:45:14.193Z,0.52
2023-01-19T12:47:43.536Z,0.70
2023-01-19T12:50:14.652Z,0.50
2023-01-19T12:52:49.579Z,0.30
2023-01-19T12:55:18.920Z,0.50
2023-01-19T12:57:51.302Z,0.40
2023-01-19T13:00:25.204Z,0.38
2023-01-19T13:02:53.423Z,0.40
2023-01-19T13:05:27.692Z,0.30
2023-01-19T13:08:06.860Z,0.20
2023-01-19T13:10:53.086Z,0.35
2023-01-19T13:13:26.140Z,0.30
2023-01-19T13:15:55.868Z,0.50
2023-01-19T13:18:24.659Z,0.30
2023-01-19T13:20:56.883Z,0.40
2023-01-19T13:23:25.893Z,0.87
2023-01-19T13:26:03.685Z,0.30
2023-01-19T13:28:32.849Z,0.40
2023-01-19T13:31:02.800Z,0.30
2023-01-19T13:33:31.330Z,1.33
2023-01-19T13:35:59.229Z,0.60
2023-01-19T13:38:27.667Z,0.73
2023-01-19T13:40:56.009Z,0.40
2023-01-19T13:43:29.290Z,0.60
2023-01-19T13:45:57.121Z,0.88
2023-01-19T13:48:25.054Z,0.20
2023-01-19T13:50:59.888Z,0.50
2023-01-19T13:53:30.552Z,0.38
2023-01-19T13:56:08.632Z,0.30
2023-01-19T13:59:05.194Z,0.57
2023-01-19T14:01:33.397Z,0.20
2023-01-19T14:04:01.397Z,0.32
2023-01-19T14:06:41.872Z,0.60
2023-01-19T14:09:19.119Z,0.30
2023-01-19T14:11:47.770Z,0.22
2023-01-19T14:14:25.078Z,0.10
2023-01-19T14:16:53.066Z,0.13
2023-01-19T14:19:20.827Z,0.40
2023-01-19T14:21:58.128Z,0.20
2023-01-19T14:24:29.796Z,0.10
2023-01-19T14:27:18.428Z,0.10
2023-01-19T14:29:47.571Z,0.30
2023-01-19T14:32:16.302Z,0.30
2023-01-19T14:34:45.359Z,0.10
2023-01-19T14:37:13.157Z,0.20
2023-01-19T14:39:40.935Z,0.10
2023-01-19T14:42:12.809Z,0.28
2023-01-19T14:44:40.643Z,1.95
2023-01-19T14:47:08.457Z,0.57
2023-01-19T14:49:37.313Z,0.43
2023-01-19T14:52:06.287Z,0.45
2023-01-19T14:54:40.017Z,0.30
2023-01-19T14:57:11.710Z,0.33
2023-01-19T14:59:39.467Z,0.30
2023-01-19T15:02:07.463Z,0.50
2023-01-19T15:04:35.390Z,0.30
2023-01-19T15:07:03.320Z,1.02
2023-01-19T15:09:31.188Z,0.40
2023-01-19T15:11:58.966Z,0.45
2023-01-19T15:14:27.995Z,0.50
2023-01-19T15:16:55.695Z,0.32
2023-01-19T15:19:23.591Z,0.35
2023-01-19T15:21:51.341Z,0.93
2023-01-19T15:24:19.139Z,0.30
2023-01-19T15:26:46.928Z,0.47
2023-01-19T15:29:16.589Z,0.87
2023-01-19T15:31:44.595Z,0.68
2023-01-19T15:34:15.253Z,0.55
2023-01-19T15:36:43.118Z,0.20
2023-01-19T15:39:11.100Z,0.30
2023-01-19T15:41:39.685Z,0.73
2023-01-19T15:44:08.649Z,0.30
2023-01-19T15:46:36.550Z,0.20
2023-01-19T15:49:05.879Z,0.20
2023-01-19T15:51:33.757Z,0.45
2023-01-19T15:54:01.580Z,0.57
2023-01-19T15:56:30.292Z,0.17
2023-01-19T15:58:58.525Z,0.95
2023-01-19T16:01:34.054Z,0.20
2023-01-19T16:04:03.814Z,0.83
2023-01-19T16:06:32.011Z,0.10
2023-01-19T16:09:01.886Z,0.20
2023-01-19T16:11:31.075Z,0.30
2023-01-19T16:13:59.851Z,0.13
2023-01-19T16:16:33.645Z,0.43
2023-01-19T16:19:04.346Z,0.40
2023-01-19T16:21:32.413Z,0.47
2023-01-19T16:24:06.190Z,0.55
2023-01-19T16:26:35.818Z,0.30
2023-01-19T16:29:11.092Z,0.40
2023-01-19T16:31:39.216Z,0.55
2023-01-19T16:34:07.017Z,0.90
2023-01-19T16:36:35.341Z,1.10
2023-01-19T16:39:04.412Z,1.05
2023-01-19T16:41:32.293Z,1.10
2023-01-19T16:44:00.563Z,0.37
2023-01-19T16:46:30.043Z,0.30
2023-01-19T16:49:01.313Z,0.50
2023-01-19T16:51:29.348Z,0.30
2023-01-19T16:53:57.070Z,0.30
2023-01-19T16:56:24.878Z,0.30
2023-01-19T16:58:55.876Z,0.45
2023-01-19T17:01:23.921Z,0.40
2023-01-19T17:03:51.894Z,0.30
2023-01-19T17:06:23.326Z,0.50
2023-01-19T17:08:51.634Z,0.30
2023-01-19T17:11:20.983Z,0.20
2023-01-19T17:13:49.176Z,0.32
2023-01-19T17:16:17.109Z,0.32
2023-01-19T17:18:44.927Z,0.27
2023-01-19T17:21:12.688Z,1.08
2023-01-19T17:23:43.432Z,1.38
2023-01-19T17:26:11.169Z,1.13
2023-01-19T17:28:39.154Z,1.02
2023-01-19T17:31:11.228Z,0.60
2023-01-19T17:33:39.258Z,0.50
2023-01-19T17:36:07.789Z,0.40
2023-01-19T17:38:36.002Z,0.68
2023-01-19T17:41:03.753Z,0.30
2023-01-19T17:43:31.605Z,0.40
2023-01-19T17:46:00.845Z,0.30
2023-01-19T17:48:30.104Z,0.57
2023-01-19T17:51:05.769Z,0.30
2023-01-19T17:53:33.921Z,0.45
2023-01-19T17:56:05.200Z,0.30
2023-01-19T17:58:32.991Z,0.30
2023-01-19T18:01:01.054Z,0.28
2023-01-19T18:03:28.747Z,0.10
2023-01-19T18:05:56.695Z,0.10
2023-01-19T18:08:24.389Z,0.20
2023-01-19T18:10:58.327Z,0.20
2023-01-19T18:13:26.212Z,0.10
2023-01-19T18:15:54.311Z,0.10
2023-01-19T18:18:22.108Z,0.10
2023-01-19T18:20:49.931Z,0.20
2023-01-19T18:23:17.742Z,0.17
2023-01-19T18:25:45.462Z,0.10
2023-01-19T18:28:13.285Z,0.10
2023-01-19T18:30:41.171Z,0.00
2023-01-19T18:33:08.991Z,0.10
2023-01-19T18:35:39.191Z,0.20
2023-01-19T18:38:08.362Z,0.20
2023-01-19T18:40:36.587Z,0.10
2023-01-19T18:43:04.388Z,0.20
2023-01-19T18:45:32.073Z,0.20
2023-01-19T18:48:02.183Z,0.20
2023-01-19T18:50:33.125Z,0.50
2023-01-19T18:53:01.080Z,0.10
2023-01-19T18:55:28.849Z,0.20
2023-01-19T18:57:56.582Z,0.60
2023-01-19T19:00:24.423Z,0.40
2023-01-19T19:02:52.180Z,0.30
2023-01-19T19:05:20.088Z,0.30
2023-01-19T19:07:48.319Z,0.30
2023-01-19T19:10:16.620Z,0.52
2023-01-19T19:12:47.284Z,0.43
2023-01-19T19:15:15.340Z,0.40
2023-01-19T19:17:43.165Z,0.50
2023-01-19T19:20:11.905Z,0.17
2023-01-19T19:22:42.257Z,0.40
2023-01-19T19:25:10.415Z,0.40
2023-01-19T19:27:38.800Z,0.20
2023-01-19T19:30:06.862Z,0.27
2023-01-19T19:32:34.602Z,0.28
2023-01-19T19:35:03.613Z,0.30
2023-01-19T19:37:31.718Z,0.37
2023-01-19T19:40:00.497Z,0.30
2023-01-19T19:42:30.376Z,0.20
2023-01-19T19:44:59.168Z,0.43
2023-01-19T19:47:29.722Z,0.30
2023-01-19T19:49:57.600Z,0.57
2023-01-19T19:52:27.772Z,0.73
2023-01-19T19:54:55.576Z,1.00
2023-01-19T19:57:23.558Z,1.25
2023-01-19T19:59:51.237Z,0.70
2023-01-19T20:02:19.096Z,0.30
2023-01-19T20:04:47.097Z,0.40
2023-01-19T20:07:17.799Z,0.20
2023-01-19T20:09:47.037Z,0.30
2023-01-19T20:12:14.976Z,0.10
2023-01-19T20:14:42.839Z,0.28
2023-01-19T20:17:11.332Z,0.28
2023-01-19T20:19:39.220Z,0.30
2023-01-19T20:22:08.134Z,0.30
2023-01-19T20:24:38.823Z,0.60
2023-01-19T20:27:06.706Z,0.37
2023-01-19T20:29:34.503Z,0.20
2023-01-19T20:32:02.535Z,0.50
2023-01-19T20:34:33.183Z,1.33
2023-01-19T20:37:01.993Z,0.70
2023-01-19T20:39:34.166Z,0.77
2023-01-19T20:42:02.270Z,0.50
2023-01-19T20:44:31.480Z,0.23
2023-01-19T20:46:59.572Z,0.60
2023-01-19T20:49:27.423Z,0.30
2023-01-19T20:51:55.173Z,0.20
2023-01-19T20:54:24.615Z,0.40
2023-01-19T20:56:54.695Z,0.52
2023-01-19T20:59:22.531Z,0.30
2023-01-19T21:01:50.560Z,0.30
2023-01-19T21:04:18.696Z,0.40
2023-01-19T21:06:46.587Z,0.35
2023-01-19T21:09:14.246Z,0.43
2023-01-19T21:11:42.105Z,0.47
2023-01-19T21:14:09.840Z,0.43
2023-01-19T21:16:37.804Z,0.50
2023-01-19T21:19:05.802Z,0.55
2023-01-19T21:21:35.261Z,0.40
2023-01-19T21:24:03.155Z,0.52
2023-01-19T21:26:31.758Z,0.67
2023-01-19T21:28:59.521Z,0.70
2023-01-19T21:31:28.181Z,0.40
2023-01-19T21:33:56.480Z,0.50
2023-01-19T21:36:24.804Z,0.75
2023-01-19T21:38:52.743Z,0.93
2023-01-19T21:41:20.625Z,0.50
2023-01-19T21:43:48.434Z,1.52
2023-01-19T21:46:29.695Z,2.25
2023-01-19T21:48:57.910Z,0.82
2023-01-19T21:51:25.649Z,0.70
2023-01-19T21:53:56.125Z,1.13
2023-01-19T21:56:23.914Z,0.60
2023-01-19T21:58:51.654Z,0.63
2023-01-19T22:01:19.482Z,0.50
2023-01-19T22:03:47.199Z,0.50
2023-01-19T22:06:15.288Z,0.67
2023-01-19T22:08:44.900Z,0.60
2023-01-19T22:11:16.323Z,1.20
2023-01-19T22:13:44.081Z,1.13
2023-01-19T22:16:15.453Z,0.70
2023-01-19T22:18:43.851Z,1.05
2023-01-19T22:21:15.378Z,0.70
2023-01-19T22:23:43.280Z,1.00
2023-01-19T22:26:11.418Z,0.57
2023-01-19T22:28:39.220Z,1.23
2023-01-19T22:31:10.535Z,1.03
2023-01-19T22:33:38.324Z,0.80
2023-01-19T22:36:14.988Z,0.57
2023-01-19T22:38:43.173Z,1.02
2023-01-19T22:41:13.731Z,0.90
2023-01-19T22:43:41.535Z,0.80
2023-01-19T22:46:09.314Z,1.30
2023-01-19T22:48:37.217Z,4.27
2023-01-19T22:51:05.082Z,4.43
2023-01-19T22:53:32.795Z,7.10
2023-01-19T22:56:00.573Z,2.10
2023-01-19T22:58:28.295Z,3.10
2023-01-19T23:00:56.261Z,3.22
2023-01-19T23:03:24.185Z,0.90
2023-01-19T23:05:51.944Z,0.55
2023-01-19T23:08:19.629Z,0.30
2023-01-19T23:10:47.404Z,0.38
2023-01-19T23:13:15.110Z,0.63
2023-01-19T23:15:42.961Z,0.60
2023-01-19T23:18:10.737Z,0.30
2023-01-19T23:20:38.410Z,0.43
2023-01-19T23:23:06.243Z,0.30
2023-01-19T23:25:33.918Z,0.30
2023-01-19T23:28:04.654Z,0.70
2023-01-19T23:30:32.348Z,0.70
2023-01-19T23:33:00.118Z,0.40
2023-01-19T23:35:27.883Z,0.40
2023-01-19T23:37:55.669Z,0.43
2023-01-19T23:40:23.450Z,0.17
2023-01-19T23:42:51.080Z,0.63
2023-01-19T23:45:18.926Z,0.38
2023-01-19T23:47:46.663Z,0.35
2023-01-19T23:50:14.383Z,0.60
2023-01-19T23:52:42.028Z,0.40
2023-01-19T23:55:12.843Z,0.45
2023-01-19T23:57:40.718Z,0.67
